TimePDT,TemperatureF,Dew PointF,Humidity,Sea Level PressureIn,VisibilityMPH,Wind Direction,Wind SpeedMPH,Gust SpeedMPH,PrecipitationIn,Events,Conditions,WindDirDegrees,DateUTC
12:15 AM,51.8,46.4,82,30.01,10.0,South,6.9,-,N/A,,Mostly Cloudy,190,2013-05-25 07:15:00
12:35 AM,50.0,48.2,94,30.01,5.0,SSW,5.8,-,N/A,Rain,Light Rain,200,2013-05-25 07:35:00
12:55 AM,50.0,48.2,94,30.01,10.0,Calm,Calm,-,N/A,,Mostly Cloudy,0,2013-05-25 07:55:00
1:15 AM,50.0,48.2,94,30.00,9.0,North,-9999.0,-,N/A,Rain,Light Rain,0,2013-05-25 08:15:00
1:35 AM,50.0,46.4,87,30.00,10.0,Calm,Calm,-,N/A,,Partly Cloudy,0,2013-05-25 08:35:00
1:55 AM,50.0,46.4,87,30.00,10.0,South,4.6,-,N/A,,Scattered Clouds,180,2013-05-25 08:55:00
2:15 AM,50.0,46.4,87,30.00,10.0,SSW,10.4,-,N/A,,Mostly Cloudy,200,2013-05-25 09:15:00
2:35 AM,50.0,46.4,87,29.99,10.0,SSW,9.2,-,N/A,,Scattered Clouds,210,2013-05-25 09:35:00
2:55 AM,50.0,48.2,94,29.99,10.0,SSW,9.2,-,N/A,,Clear,200,2013-05-25 09:55:00
3:15 AM,50.0,46.4,87,29.99,10.0,SSW,9.2,-,N/A,,Mostly Cloudy,200,2013-05-25 10:15:00
3:35 AM,50.0,48.2,94,29.99,10.0,South,9.2,-,N/A,,Overcast,190,2013-05-25 10:35:00
3:55 AM,50.0,48.2,94,29.99,10.0,SSW,10.4,-,N/A,,Overcast,200,2013-05-25 10:55:00
4:15 AM,50.0,48.2,94,30.00,10.0,SSW,8.1,-,N/A,,Overcast,200,2013-05-25 11:15:00
4:35 AM,50.0,46.4,87,30.00,10.0,South,8.1,-,N/A,,Overcast,190,2013-05-25 11:35:00
4:55 AM,50.0,46.4,87,29.99,10.0,South,6.9,-,N/A,,Overcast,190,2013-05-25 11:55:00
5:15 AM,50.0,46.4,87,29.99,10.0,South,4.6,-,N/A,,Overcast,180,2013-05-25 12:15:00
5:35 AM,50.0,46.4,87,29.99,10.0,South,4.6,-,N/A,,Overcast,180,2013-05-25 12:35:00
5:55 AM,50.0,46.4,87,29.99,9.0,South,10.4,-,N/A,,Mostly Cloudy,190,2013-05-25 12:55:00
6:15 AM,50.0,46.4,87,30.00,9.0,South,9.2,-,N/A,,Scattered Clouds,190,2013-05-25 13:15:00
6:35 AM,50.0,46.4,87,30.00,10.0,South,9.2,-,N/A,,Mostly Cloudy,190,2013-05-25 13:35:00
6:55 AM,50.0,46.4,87,30.00,10.0,SSW,11.5,-,N/A,,Mostly Cloudy,200,2013-05-25 13:55:00
7:15 AM,50.0,46.4,87,30.00,9.0,South,9.2,-,N/A,,Mostly Cloudy,190,2013-05-25 14:15:00
7:35 AM,50.0,46.4,87,30.01,9.0,South,8.1,-,N/A,,Mostly Cloudy,190,2013-05-25 14:35:00
7:55 AM,50.0,46.4,87,30.01,10.0,South,6.9,-,N/A,,Overcast,190,2013-05-25 14:55:00
8:15 AM,50.0,46.4,87,30.02,10.0,South,11.5,-,N/A,,Overcast,190,2013-05-25 15:15:00
8:35 AM,50.0,46.4,87,30.02,10.0,South,9.2,-,N/A,,Overcast,190,2013-05-25 15:35:00
8:55 AM,51.8,48.2,88,30.01,10.0,South,11.5,-,N/A,,Scattered Clouds,180,2013-05-25 15:55:00
9:15 AM,51.8,46.4,82,30.01,10.0,South,8.1,-,N/A,,Mostly Cloudy,180,2013-05-25 16:15:00
9:35 AM,53.6,46.4,77,30.01,10.0,SSW,9.2,-,N/A,,Mostly Cloudy,200,2013-05-25 16:35:00
9:55 AM,53.6,46.4,77,30.02,10.0,South,5.8,-,N/A,,Scattered Clouds,180,2013-05-25 16:55:00
10:15 AM,53.6,46.4,77,30.02,10.0,SSE,4.6,-,N/A,,Mostly Cloudy,160,2013-05-25 17:15:00
10:35 AM,53.6,46.4,77,30.02,10.0,South,8.1,-,N/A,,Mostly Cloudy,190,2013-05-25 17:35:00
10:55 AM,53.6,46.4,77,30.02,10.0,SSW,8.1,-,N/A,,Overcast,200,2013-05-25 17:55:00
11:15 AM,51.8,48.2,88,30.02,10.0,South,6.9,-,N/A,,Overcast,190,2013-05-25 18:15:00
11:35 AM,53.6,48.2,82,30.02,9.0,South,4.6,-,N/A,,Overcast,190,2013-05-25 18:35:00
11:55 AM,53.6,48.2,82,30.02,9.0,SSE,4.6,-,N/A,,Mostly Cloudy,150,2013-05-25 18:55:00
12:15 PM,55.4,46.4,72,30.02,10.0,SSW,9.2,-,N/A,,Mostly Cloudy,200,2013-05-25 19:15:00
12:35 PM,55.4,46.4,72,30.01,10.0,South,9.2,-,N/A,,Overcast,190,2013-05-25 19:35:00
12:55 PM,57.2,46.4,67,30.01,10.0,SSW,9.2,-,N/A,,Mostly Cloudy,200,2013-05-25 19:55:00
1:15 PM,57.2,46.4,67,30.01,10.0,SSW,10.4,-,N/A,,Partly Cloudy,200,2013-05-25 20:15:00
1:35 PM,57.2,46.4,67,30.01,10.0,SSW,9.2,-,N/A,,Partly Cloudy,200,2013-05-25 20:35:00
1:55 PM,57.2,46.4,67,30.01,10.0,SSW,6.9,-,N/A,,Scattered Clouds,200,2013-05-25 20:55:00
2:15 PM,59.0,46.4,63,30.01,10.0,SSW,6.9,-,N/A,,Partly Cloudy,200,2013-05-25 21:15:00
2:35 PM,57.2,48.2,72,30.01,10.0,NNW,8.1,-,N/A,,Scattered Clouds,340,2013-05-25 21:35:00
2:55 PM,55.4,48.2,77,30.01,10.0,NNW,5.8,-,N/A,,Mostly Cloudy,330,2013-05-25 21:55:00
3:15 PM,53.6,46.4,77,30.01,10.0,NNW,6.9,-,N/A,,Mostly Cloudy,340,2013-05-25 22:15:00
3:35 PM,53.6,46.4,77,30.01,10.0,North,3.5,-,N/A,,Mostly Cloudy,350,2013-05-25 22:35:00
3:55 PM,53.6,46.4,77,30.01,10.0,North,3.5,-,N/A,,Scattered Clouds,10,2013-05-25 22:55:00
4:15 PM,53.6,46.4,77,30.01,10.0,Calm,Calm,-,N/A,,Partly Cloudy,0,2013-05-25 23:15:00
4:35 PM,53.6,46.4,77,30.01,10.0,Calm,Calm,-,N/A,,Partly Cloudy,0,2013-05-25 23:35:00
4:55 PM,55.4,46.4,72,30.00,10.0,North,6.9,-,N/A,,Scattered Clouds,350,2013-05-25 23:55:00
5:15 PM,55.4,44.6,67,30.00,10.0,North,4.6,-,N/A,,Clear,350,2013-05-26 00:15:00
5:35 PM,55.4,46.4,72,30.00,10.0,Calm,Calm,-,N/A,,Clear,0,2013-05-26 00:35:00
5:55 PM,57.2,46.4,67,30.00,10.0,North,4.6,-,N/A,,Clear,350,2013-05-26 00:55:00
6:15 PM,55.4,46.4,72,30.00,10.0,Calm,Calm,-,N/A,,Clear,0,2013-05-26 01:15:00
6:35 PM,55.4,46.4,72,29.99,10.0,Calm,Calm,-,N/A,,Clear,0,2013-05-26 01:35:00
6:55 PM,55.4,46.4,72,29.99,10.0,North,3.5,-,N/A,,Clear,350,2013-05-26 01:55:00
7:15 PM,55.4,46.4,72,29.99,10.0,Calm,Calm,-,N/A,,Clear,0,2013-05-26 02:15:00
7:35 PM,55.4,46.4,72,29.99,10.0,Calm,Calm,-,N/A,,Clear,0,2013-05-26 02:35:00
7:55 PM,57.2,46.4,67,29.99,10.0,Calm,Calm,-,N/A,,Clear,0,2013-05-26 02:55:00
8:15 PM,55.4,48.2,77,29.99,10.0,Calm,Calm,-,N/A,,Clear,0,2013-05-26 03:15:00
8:35 PM,55.4,46.4,72,29.99,10.0,Calm,Calm,-,N/A,,Clear,0,2013-05-26 03:35:00
8:55 PM,53.6,46.4,77,29.98,10.0,Calm,Calm,-,N/A,,Clear,0,2013-05-26 03:55:00
9:15 PM,53.6,46.4,77,29.98,10.0,Calm,Calm,-,N/A,,Clear,0,2013-05-26 04:15:00
9:35 PM,51.8,46.4,82,29.99,10.0,Calm,Calm,-,N/A,,Scattered Clouds,0,2013-05-26 04:35:00
9:55 PM,53.6,46.4,77,29.99,10.0,Calm,Calm,-,N/A,,Mostly Cloudy,0,2013-05-26 04:55:00
10:15 PM,53.6,46.4,77,29.99,10.0,North,-9999.0,-,N/A,,Mostly Cloudy,0,2013-05-26 05:15:00
10:35 PM,53.6,48.2,82,29.99,10.0,North,-9999.0,-,N/A,,Partly Cloudy,0,2013-05-26 05:35:00
10:55 PM,53.6,46.4,77,29.99,10.0,South,3.5,-,N/A,,Clear,190,2013-05-26 05:55:00
11:15 PM,53.6,48.2,82,29.99,10.0,SSW,4.6,-,N/A,Rain,Light Rain,200,2013-05-26 06:15:00
11:35 PM,53.6,48.2,82,29.98,8.0,SSW,5.8,-,N/A,Rain,Light Rain,200,2013-05-26 06:35:00
11:55 PM,51.8,48.2,88,29.98,7.0,South,3.5,-,N/A,Rain,Light Rain,180,2013-05-26 06:55:00